createdAt,value
2019-02-07T00:00:05.803Z,15.70
2019-02-07T00:02:54.278Z,16.30
2019-02-07T00:05:41.903Z,16.30
2019-02-07T00:08:29.818Z,17.80
2019-02-07T00:11:17.161Z,16.93
2019-02-07T00:14:04.581Z,16.83
2019-02-07T00:16:51.900Z,17.10
2019-02-07T00:19:39.941Z,15.87
2019-02-07T00:22:27.671Z,16.43
2019-02-07T00:25:15.199Z,16.73
2019-02-07T00:28:03.548Z,16.30
2019-02-07T00:30:51.172Z,15.73
2019-02-07T00:33:38.391Z,16.27
2019-02-07T00:36:25.816Z,16.23
2019-02-07T00:39:14.470Z,16.77
2019-02-07T00:42:02.201Z,15.70
2019-02-07T00:44:51.543Z,16.13
2019-02-07T00:47:38.409Z,15.80
2019-02-07T00:50:26.109Z,14.80
2019-02-07T00:53:13.532Z,16.30
2019-02-07T00:56:00.958Z,15.27
2019-02-07T00:58:48.185Z,15.57
2019-02-07T01:01:36.009Z,15.07
2019-02-07T01:04:23.639Z,14.50
2019-02-07T01:07:10.862Z,15.30
2019-02-07T01:09:58.488Z,14.47
2019-02-07T01:12:46.012Z,16.03
2019-02-07T01:15:33.335Z,15.27
2019-02-07T01:18:20.355Z,14.10
2019-02-07T01:21:08.203Z,13.70
2019-02-07T01:23:55.609Z,13.60
2019-02-07T01:26:43.030Z,13.60
2019-02-07T01:29:30.865Z,13.23
2019-02-07T01:32:18.391Z,13.33
2019-02-07T01:35:07.134Z,13.77
2019-02-07T01:37:54.363Z,13.10
2019-02-07T01:40:42.813Z,12.63
2019-02-07T01:43:30.032Z,12.90
2019-02-07T01:46:17.660Z,13.20
2019-02-07T01:49:05.220Z,13.03
2019-02-07T01:51:52.920Z,12.77
2019-02-07T01:54:40.244Z,12.07
2019-02-07T01:57:28.079Z,12.80
2019-02-07T02:00:17.941Z,12.23
2019-02-07T02:03:05.970Z,12.30
2019-02-07T02:05:53.632Z,12.77
2019-02-07T02:08:40.856Z,12.90
2019-02-07T02:11:28.368Z,11.87
2019-02-07T02:14:17.020Z,12.57
2019-02-07T02:17:04.449Z,12.27
2019-02-07T02:19:52.175Z,12.70
2019-02-07T02:22:40.711Z,11.97
2019-02-07T02:25:28.255Z,12.33
2019-02-07T02:28:16.808Z,11.70
2019-02-07T02:31:04.739Z,11.90
2019-02-07T02:33:52.174Z,11.87
2019-02-07T02:36:39.893Z,11.13
2019-02-07T02:39:26.912Z,12.60
2019-02-07T02:42:14.336Z,12.37
2019-02-07T02:45:01.671Z,13.60
2019-02-07T02:47:50.058Z,12.37
2019-02-07T02:50:38.034Z,12.83
2019-02-07T02:53:25.257Z,12.00
2019-02-07T02:56:12.612Z,11.57
2019-02-07T02:59:00.210Z,11.27
2019-02-07T03:01:49.170Z,10.67
2019-02-07T03:04:38.638Z,10.80
2019-02-07T03:07:27.394Z,11.10
2019-02-07T03:10:35.309Z,11.30
2019-02-07T03:13:27.024Z,11.37
2019-02-07T03:16:24.995Z,11.53
2019-02-07T03:19:23.585Z,11.10
2019-02-07T03:22:25.142Z,11.40
2019-02-07T03:25:30.994Z,10.80
2019-02-07T03:28:25.889Z,11.03
2019-02-07T03:31:17.929Z,10.23
2019-02-07T03:34:07.294Z,11.07
2019-02-07T03:36:55.944Z,11.13
2019-02-07T03:40:01.093Z,10.83
2019-02-07T03:42:59.369Z,10.23
2019-02-07T03:46:03.014Z,10.50
2019-02-07T03:48:49.059Z,10.60
2019-02-07T03:51:43.626Z,10.87
2019-02-07T03:54:38.963Z,10.33
2019-02-07T03:57:34.166Z,10.53
2019-02-07T04:00:28.760Z,10.70
2019-02-07T04:03:18.046Z,12.13
2019-02-07T04:06:18.964Z,11.57
2019-02-07T04:09:13.049Z,11.50
2019-02-07T04:12:02.318Z,11.00
2019-02-07T04:14:54.346Z,10.57
2019-02-07T04:17:43.962Z,10.30
2019-02-07T04:20:33.186Z,10.10
2019-02-07T04:23:22.098Z,9.87
2019-02-07T04:26:27.491Z,9.83
2019-02-07T04:29:33.553Z,9.47
2019-02-07T04:32:28.761Z,9.47
2019-02-07T04:35:18.026Z,10.37
2019-02-07T04:38:13.133Z,10.43
2019-02-07T04:41:02.091Z,10.93
2019-02-07T04:43:50.844Z,10.13
2019-02-07T04:46:40.213Z,10.43
2019-02-07T04:49:45.779Z,10.50
2019-02-07T04:52:45.172Z,10.10
2019-02-07T04:55:37.126Z,11.67
2019-02-07T04:58:26.296Z,11.47
2019-02-07T05:01:24.342Z,10.83
2019-02-07T05:04:29.169Z,10.90
2019-02-07T05:07:24.385Z,10.47
2019-02-07T05:10:19.579Z,9.27
2019-02-07T05:13:08.959Z,8.73
2019-02-07T05:16:07.124Z,8.93
2019-02-07T05:19:11.955Z,9.27
2019-02-07T05:22:17.618Z,9.60
2019-02-07T05:25:23.668Z,9.70
2019-02-07T05:28:15.194Z,8.50
2019-02-07T05:31:04.046Z,8.43
2019-02-07T05:33:53.208Z,8.87
2019-02-07T05:36:54.562Z,9.00
2019-02-07T05:39:50.794Z,8.53
2019-02-07T05:42:42.514Z,10.10
2019-02-07T05:45:31.687Z,9.50
2019-02-07T05:48:36.819Z,9.60
2019-02-07T05:51:38.068Z,9.53
2019-02-07T05:54:26.891Z,9.17
2019-02-07T05:57:19.061Z,8.43
2019-02-07T06:00:26.965Z,8.60
2019-02-07T06:03:16.233Z,8.23
2019-02-07T06:06:23.622Z,8.57
2019-02-07T06:09:13.099Z,8.47
2019-02-07T06:12:18.660Z,8.37
2019-02-07T06:15:09.575Z,9.17
2019-02-07T06:18:04.344Z,8.20
2019-02-07T06:20:53.511Z,9.50
2019-02-07T06:23:42.470Z,9.47
2019-02-07T06:26:31.739Z,9.37
2019-02-07T06:29:36.158Z,8.77
2019-02-07T06:32:28.089Z,9.30
2019-02-07T06:35:26.574Z,10.03
2019-02-07T06:38:21.603Z,10.00
2019-02-07T06:41:22.605Z,9.97
2019-02-07T06:44:26.630Z,10.90
2019-02-07T06:47:31.666Z,11.03
2019-02-07T06:50:20.831Z,10.20
2019-02-07T06:53:19.725Z,10.43
2019-02-07T06:56:23.594Z,11.10
2019-02-07T06:59:28.982Z,10.57
2019-02-07T07:02:23.881Z,10.43
2019-02-07T07:05:29.079Z,10.33
2019-02-07T07:08:27.595Z,11.00
2019-02-07T07:11:20.373Z,10.47
2019-02-07T07:14:09.315Z,10.43
2019-02-07T07:17:25.582Z,9.90
2019-02-07T07:20:19.494Z,10.73
2019-02-07T07:23:11.519Z,9.93
2019-02-07T07:26:03.555Z,10.77
2019-02-07T07:29:10.636Z,10.40
2019-02-07T07:32:02.673Z,10.03
2019-02-07T07:35:07.321Z,11.60
2019-02-07T07:38:02.196Z,10.80
2019-02-07T07:41:10.511Z,10.83
2019-02-07T07:43:59.865Z,10.50
2019-02-07T07:46:54.777Z,10.60
2019-02-07T07:49:50.086Z,11.27
2019-02-07T07:52:38.948Z,11.03
2019-02-07T07:55:31.121Z,11.00
2019-02-07T07:58:29.357Z,11.80
2019-02-07T08:01:24.872Z,11.23
2019-02-07T08:04:22.534Z,12.00
2019-02-07T08:07:11.598Z,11.90
2019-02-07T08:10:16.842Z,11.80
2019-02-07T08:13:16.090Z,12.00
2019-02-07T08:16:21.485Z,11.70
2019-02-07T08:19:14.808Z,11.80
2019-02-07T08:22:05.386Z,12.13
2019-02-07T08:25:00.521Z,11.57
2019-02-07T08:27:50.022Z,12.80
2019-02-07T08:30:48.811Z,12.97
2019-02-07T08:33:39.318Z,12.97
2019-02-07T08:36:34.054Z,13.03
2019-02-07T08:39:31.359Z,13.33
2019-02-07T08:42:32.621Z,13.10
2019-02-07T08:45:32.171Z,12.60
2019-02-07T08:48:21.383Z,13.07
2019-02-07T08:51:22.730Z,13.40
2019-02-07T08:54:28.583Z,12.27
2019-02-07T08:57:17.856Z,12.30
2019-02-07T09:00:21.560Z,13.33
2019-02-07T09:03:10.727Z,12.57
2019-02-07T09:06:02.968Z,12.63
2019-02-07T09:08:54.583Z,13.00
2019-02-07T09:11:52.759Z,12.97
2019-02-07T09:14:58.617Z,13.20
2019-02-07T09:18:10.032Z,12.97
2019-02-07T09:20:53.435Z,13.07
2019-02-07T09:23:48.433Z,13.87
2019-02-07T09:26:46.517Z,13.27
2019-02-07T09:29:51.545Z,13.43
2019-02-07T09:32:43.679Z,14.00
2019-02-07T09:35:32.438Z,14.67
2019-02-07T09:38:38.189Z,14.37
2019-02-07T09:41:27.648Z,13.90
2019-02-07T09:44:16.520Z,15.13
2019-02-07T09:47:08.651Z,15.50
2019-02-07T09:50:00.484Z,15.03
2019-02-07T09:53:05.927Z,15.47
2019-02-07T09:56:11.169Z,15.90
2019-02-07T09:59:03.530Z,15.07
2019-02-07T10:01:55.544Z,15.83
2019-02-07T10:04:59.859Z,15.93
2019-02-07T10:08:00.969Z,16.20
2019-02-07T10:10:56.368Z,16.10
2019-02-07T10:13:54.797Z,16.47
2019-02-07T10:16:46.620Z,17.37
2019-02-07T10:19:51.555Z,16.80
2019-02-07T10:22:43.384Z,18.20
2019-02-07T10:25:35.006Z,17.60
2019-02-07T10:28:40.047Z,18.83
2019-02-07T10:31:47.846Z,18.17
2019-02-07T10:34:36.703Z,17.80
2019-02-07T10:37:26.180Z,18.53
2019-02-07T10:40:29.573Z,17.97
2019-02-07T10:43:18.233Z,18.47
2019-02-07T10:46:27.224Z,18.33
2019-02-07T10:49:18.987Z,18.73
2019-02-07T10:52:10.808Z,18.63
2019-02-07T10:54:59.573Z,20.10
2019-02-07T10:57:54.431Z,19.23
2019-02-07T11:00:43.524Z,18.10
2019-02-07T11:03:32.996Z,19.43
2019-02-07T11:06:28.406Z,19.27
2019-02-07T11:09:17.472Z,19.27
2019-02-07T11:12:19.948Z,19.97
2019-02-07T11:15:11.859Z,20.07
2019-02-07T11:18:04.116Z,20.17
2019-02-07T11:21:09.358Z,19.83
2019-02-07T11:23:58.826Z,20.17
2019-02-07T11:26:56.593Z,19.27
2019-02-07T11:29:57.329Z,18.90
2019-02-07T11:32:46.607Z,17.97
2019-02-07T11:35:35.555Z,18.60
2019-02-07T11:38:41.620Z,18.83
2019-02-07T11:41:33.879Z,18.07
2019-02-07T11:44:39.403Z,18.90
2019-02-07T11:47:31.100Z,18.17
2019-02-07T11:50:36.471Z,18.67
2019-02-07T11:53:43.569Z,18.27
2019-02-07T11:56:49.105Z,17.90
2019-02-07T11:59:44.826Z,17.47
2019-02-07T12:02:51.297Z,16.90
2019-02-07T12:05:56.439Z,16.53
2019-02-07T12:08:52.661Z,15.87
2019-02-07T12:11:48.694Z,16.10
2019-02-07T12:14:40.806Z,16.40
2019-02-07T12:17:41.868Z,17.03
2019-02-07T12:20:43.319Z,17.40
2019-02-07T12:23:44.054Z,19.13
2019-02-07T12:26:36.598Z,18.17
2019-02-07T12:29:34.570Z,18.57
2019-02-07T12:32:32.671Z,18.17
2019-02-07T12:35:22.117Z,17.60
2019-02-07T12:38:12.937Z,18.20
2019-02-07T12:41:08.330Z,17.77
2019-02-07T12:44:00.056Z,18.43
2019-02-07T12:46:57.720Z,17.53
2019-02-07T12:49:52.721Z,18.27
2019-02-07T12:52:57.761Z,18.80
2019-02-07T12:55:52.415Z,17.27
2019-02-07T12:58:40.594Z,16.33
2019-02-07T13:01:35.698Z,17.27
2019-02-07T13:04:30.493Z,17.60
2019-02-07T13:07:22.728Z,17.43
2019-02-07T13:10:22.953Z,17.97
2019-02-07T13:13:18.090Z,17.27
2019-02-07T13:16:06.943Z,17.17
2019-02-07T13:19:05.223Z,16.83
2019-02-07T13:21:56.817Z,17.30
2019-02-07T13:24:48.340Z,16.73
2019-02-07T13:27:37.638Z,19.20
2019-02-07T13:30:38.443Z,18.00
2019-02-07T13:33:43.790Z,18.63
2019-02-07T13:36:33.615Z,18.30
2019-02-07T13:39:41.163Z,16.90
2019-02-07T13:42:46.608Z,16.87
2019-02-07T13:45:35.671Z,15.87
2019-02-07T13:48:27.499Z,16.80
2019-02-07T13:51:28.234Z,16.50
2019-02-07T13:54:20.291Z,16.30
2019-02-07T13:57:13.629Z,16.33
2019-02-07T14:00:08.837Z,16.27
2019-02-07T14:03:09.981Z,15.13
2019-02-07T14:05:59.268Z,15.67
2019-02-07T14:08:57.224Z,15.87
2019-02-07T14:11:46.287Z,17.53
2019-02-07T14:14:51.730Z,17.33
2019-02-07T14:17:57.382Z,17.30
2019-02-07T14:20:58.629Z,17.27
2019-02-07T14:24:02.433Z,18.33
2019-02-07T14:26:53.955Z,18.17
2019-02-07T14:29:52.028Z,18.03
2019-02-07T14:32:43.753Z,18.27
2019-02-07T14:35:49.507Z,18.53
2019-02-07T14:38:55.056Z,19.03
2019-02-07T14:41:46.678Z,18.23
2019-02-07T14:44:35.128Z,19.00
2019-02-07T14:47:22.626Z,18.70
2019-02-07T14:50:15.006Z,18.63
2019-02-07T14:53:01.977Z,20.00
2019-02-07T14:55:49.025Z,19.40
2019-02-07T14:58:36.445Z,19.63
2019-02-07T15:01:24.380Z,19.20
2019-02-07T15:04:11.702Z,19.60
2019-02-07T15:06:58.596Z,18.97
2019-02-07T15:09:45.730Z,20.20
2019-02-07T15:12:33.053Z,19.17
2019-02-07T15:15:21.869Z,19.43
2019-02-07T15:18:09.237Z,18.90
2019-02-07T15:20:57.797Z,19.83
2019-02-07T15:23:45.620Z,20.00
2019-02-07T15:26:36.213Z,19.97
2019-02-07T15:29:23.747Z,20.07
2019-02-07T15:32:11.477Z,20.07
2019-02-07T15:34:59.413Z,19.37
2019-02-07T15:37:47.343Z,21.23
2019-02-07T15:40:34.871Z,19.73
2019-02-07T15:43:22.396Z,21.93
2019-02-07T15:46:11.259Z,20.80
2019-02-07T15:48:58.884Z,20.67
2019-02-07T15:51:46.601Z,20.80
2019-02-07T15:54:34.040Z,22.23
2019-02-07T15:57:22.282Z,24.23
2019-02-07T16:00:34.997Z,30.47
2019-02-07T16:03:33.583Z,23.23
2019-02-07T16:06:21.009Z,23.10
2019-02-07T16:09:10.009Z,22.00
2019-02-07T16:11:58.524Z,23.10
2019-02-07T16:14:46.163Z,21.93
2019-02-07T16:17:33.489Z,22.87
2019-02-07T16:20:22.137Z,35.03
2019-02-07T16:23:09.963Z,35.13
2019-02-07T16:25:57.278Z,22.93
2019-02-07T16:28:45.192Z,23.10
2019-02-07T16:31:33.056Z,22.80
2019-02-07T16:34:20.776Z,23.07
2019-02-07T16:37:08.200Z,23.80
2019-02-07T16:39:55.837Z,22.53
2019-02-07T16:42:43.257Z,22.63
2019-02-07T16:45:30.679Z,23.10
2019-02-07T16:48:18.417Z,24.07
2019-02-07T16:51:06.247Z,23.43
2019-02-07T16:53:53.362Z,23.30
2019-02-07T16:56:40.688Z,25.17
2019-02-07T16:59:28.485Z,24.90
2019-02-07T17:02:15.739Z,23.47
2019-02-07T17:05:04.080Z,23.33
2019-02-07T17:07:52.223Z,24.70
2019-02-07T17:10:41.307Z,23.63
2019-02-07T17:13:28.829Z,23.00
2019-02-07T17:16:16.589Z,23.97
2019-02-07T17:19:04.071Z,29.02
2019-02-07T17:21:51.288Z,23.67
2019-02-07T17:24:38.715Z,23.23
2019-02-07T17:27:26.141Z,23.73
2019-02-07T17:30:16.312Z,21.70
2019-02-07T17:33:03.613Z,22.00
2019-02-07T17:35:50.969Z,23.03
2019-02-07T17:38:38.186Z,22.53
2019-02-07T17:41:25.507Z,22.37
2019-02-07T17:44:13.033Z,22.37
2019-02-07T17:47:00.770Z,22.17
2019-02-07T17:49:48.192Z,21.67
2019-02-07T17:52:35.857Z,21.47
2019-02-07T17:55:25.020Z,22.93
2019-02-07T17:58:12.660Z,21.27
2019-02-07T18:01:03.810Z,22.57
2019-02-07T18:03:52.783Z,21.97
2019-02-07T18:06:41.305Z,21.63
2019-02-07T18:09:28.676Z,20.90
2019-02-07T18:12:17.027Z,21.47
2019-02-07T18:15:06.364Z,22.83
2019-02-07T18:17:53.806Z,21.90
2019-02-07T18:20:41.117Z,22.57
2019-02-07T18:23:28.853Z,21.10
2019-02-07T18:26:16.277Z,21.93
2019-02-07T18:29:03.802Z,21.47
2019-02-07T18:31:51.531Z,21.87
2019-02-07T18:34:38.958Z,22.93
2019-02-07T18:37:26.380Z,22.40
2019-02-07T18:40:26.999Z,21.40
2019-02-07T18:43:14.949Z,22.60
2019-02-07T18:46:02.274Z,22.73
2019-02-07T18:48:49.698Z,21.90
2019-02-07T18:51:45.825Z,20.87
2019-02-07T18:54:31.198Z,21.03
2019-02-07T18:57:18.624Z,20.97
2019-02-07T19:00:17.548Z,21.00
2019-02-07T19:03:07.264Z,22.37
2019-02-07T19:05:54.823Z,22.03
2019-02-07T19:08:42.667Z,22.30
2019-02-07T19:11:29.772Z,22.13
2019-02-07T19:14:17.129Z,22.33
2019-02-07T19:17:04.927Z,22.40
2019-02-07T19:19:52.356Z,22.07
2019-02-07T19:22:39.978Z,21.07
2019-02-07T19:25:27.199Z,21.30
2019-02-07T19:28:14.930Z,21.43
2019-02-07T19:31:03.483Z,20.73
2019-02-07T19:33:51.048Z,20.63
2019-02-07T19:36:38.634Z,20.67
2019-02-07T19:39:26.061Z,20.60
2019-02-07T19:42:13.790Z,20.47
2019-02-07T19:45:01.419Z,19.67
2019-02-07T19:47:49.154Z,20.10
2019-02-07T19:50:38.804Z,20.57
2019-02-07T19:53:26.282Z,19.93
2019-02-07T19:56:13.676Z,20.77
2019-02-07T19:59:00.795Z,20.70
2019-02-07T20:01:48.219Z,19.73
2019-02-07T20:04:35.641Z,19.57
2019-02-07T20:07:23.484Z,20.40
2019-02-07T20:10:14.227Z,19.93
2019-02-07T20:13:01.295Z,19.80
2019-02-07T20:15:48.718Z,19.07
2019-02-07T20:18:36.142Z,18.97
2019-02-07T20:21:23.869Z,18.73
2019-02-07T20:24:13.427Z,20.20
2019-02-07T20:27:00.972Z,20.57
2019-02-07T20:29:48.399Z,20.20
2019-02-07T20:32:35.838Z,19.40
2019-02-07T20:35:26.088Z,19.17
2019-02-07T20:38:13.637Z,20.60
2019-02-07T20:41:01.471Z,19.93
2019-02-07T20:43:49.000Z,19.80
2019-02-07T20:46:36.833Z,19.50
2019-02-07T20:49:24.459Z,21.00
2019-02-07T20:52:13.214Z,20.23
2019-02-07T20:55:00.857Z,19.93
2019-02-07T20:57:48.270Z,21.80
2019-02-07T21:00:40.249Z,22.17
2019-02-07T21:03:28.029Z,20.67
2019-02-07T21:06:15.862Z,22.20
2019-02-07T21:09:03.273Z,20.43
2019-02-07T21:11:50.815Z,21.70
2019-02-07T21:14:38.655Z,21.10
2019-02-07T21:17:26.278Z,20.13
2019-02-07T21:20:17.502Z,20.50
2019-02-07T21:23:05.027Z,19.10
2019-02-07T21:25:52.853Z,19.63
2019-02-07T21:28:40.381Z,19.33
2019-02-07T21:31:28.115Z,19.67
2019-02-07T21:34:15.535Z,18.87
2019-02-07T21:37:02.754Z,19.53
2019-02-07T21:39:50.691Z,18.20
2019-02-07T21:42:39.224Z,19.23
2019-02-07T21:45:26.776Z,19.30
2019-02-07T21:48:13.984Z,18.60
2019-02-07T21:51:01.816Z,18.57
2019-02-07T21:53:48.829Z,17.70
2019-02-07T21:56:36.479Z,17.80
2019-02-07T21:59:23.887Z,16.90
2019-02-07T22:02:11.309Z,17.43
2019-02-07T22:04:58.942Z,18.17
2019-02-07T22:07:46.463Z,16.77
2019-02-07T22:10:33.992Z,16.60
2019-02-07T22:13:21.211Z,17.77
2019-02-07T22:16:08.637Z,16.57
2019-02-07T22:18:56.264Z,17.33
2019-02-07T22:21:43.770Z,17.53
2019-02-07T22:24:31.111Z,17.53
2019-02-07T22:27:18.696Z,17.60
2019-02-07T22:30:09.448Z,17.90
2019-02-07T22:32:57.634Z,17.30
2019-02-07T22:35:44.797Z,17.47
2019-02-07T22:38:32.544Z,16.87
2019-02-07T22:41:20.260Z,16.53
2019-02-07T22:44:07.601Z,16.87
2019-02-07T22:46:54.905Z,17.20
2019-02-07T22:49:42.337Z,17.07
2019-02-07T22:52:29.764Z,17.47
2019-02-07T22:55:18.310Z,17.40
2019-02-07T22:58:06.546Z,17.03
2019-02-07T23:01:03.296Z,17.47
2019-02-07T23:03:51.224Z,17.43
2019-02-07T23:06:38.753Z,17.70
2019-02-07T23:09:26.111Z,17.50
2019-02-07T23:12:14.213Z,16.37
2019-02-07T23:15:01.843Z,16.77
2019-02-07T23:17:49.576Z,16.90
2019-02-07T23:20:36.811Z,15.63
2019-02-07T23:23:23.707Z,16.40
2019-02-07T23:26:10.934Z,16.70
2019-02-07T23:28:57.938Z,16.10
2019-02-07T23:31:45.976Z,16.77
2019-02-07T23:34:33.297Z,15.50
2019-02-07T23:37:20.720Z,16.20
2019-02-07T23:40:17.567Z,15.73
2019-02-07T23:43:06.998Z,17.50
2019-02-07T23:45:54.876Z,15.77
2019-02-07T23:48:42.192Z,16.33
2019-02-07T23:51:29.579Z,16.03
2019-02-07T23:54:17.248Z,15.50
2019-02-07T23:57:05.293Z,15.90
2019-02-07T23:59:53.322Z,15.87
